createdAt,value
2022-11-29T00:00:17.023Z,5.70
2022-11-29T00:02:38.852Z,5.49
2022-11-29T00:04:41.409Z,5.58
2022-11-29T00:06:43.386Z,5.42
2022-11-29T00:08:46.021Z,5.49
2022-11-29T00:10:48.669Z,5.66
2022-11-29T00:12:50.474Z,5.70
2022-11-29T00:14:52.228Z,5.60
2022-11-29T00:16:59.299Z,5.56
2022-11-29T00:19:01.985Z,5.89
2022-11-29T00:21:08.023Z,5.82
2022-11-29T00:23:10.632Z,5.82
2022-11-29T00:25:12.423Z,5.74
2022-11-29T00:27:14.230Z,5.81
2022-11-29T00:29:16.698Z,5.64
2022-11-29T00:31:21.175Z,5.91
2022-11-29T00:33:22.950Z,6.02
2022-11-29T00:35:25.080Z,6.21
2022-11-29T00:37:26.831Z,6.04
2022-11-29T00:39:29.001Z,5.78
2022-11-29T00:41:31.342Z,5.85
2022-11-29T00:43:33.336Z,5.89
2022-11-29T00:45:35.489Z,5.78
2022-11-29T00:47:37.463Z,6.01
2022-11-29T00:49:39.661Z,5.94
2022-11-29T00:51:41.458Z,5.47
2022-11-29T00:53:43.229Z,5.72
2022-11-29T00:55:47.885Z,5.75
2022-11-29T00:57:49.704Z,5.46
2022-11-29T00:59:51.634Z,5.81
2022-11-29T01:01:53.737Z,5.59
2022-11-29T01:03:55.506Z,5.78
2022-11-29T01:06:06.077Z,5.76
2022-11-29T01:08:08.339Z,5.97
2022-11-29T01:10:10.263Z,6.02
2022-11-29T01:12:12.220Z,6.11
2022-11-29T01:14:14.519Z,5.96
2022-11-29T01:16:16.794Z,5.98
2022-11-29T01:18:18.593Z,5.89
2022-11-29T01:20:20.910Z,5.70
2022-11-29T01:22:22.689Z,5.99
2022-11-29T01:24:24.915Z,5.93
2022-11-29T01:26:29.166Z,6.02
2022-11-29T01:28:31.631Z,5.91
2022-11-29T01:30:33.468Z,5.86
2022-11-29T01:32:36.791Z,5.82
2022-11-29T01:34:38.763Z,5.89
2022-11-29T01:36:40.640Z,5.71
2022-11-29T01:38:43.079Z,5.94
2022-11-29T01:40:45.715Z,6.08
2022-11-29T01:42:47.501Z,6.12
2022-11-29T01:44:49.626Z,6.04
2022-11-29T01:46:51.607Z,5.76
2022-11-29T01:49:00.479Z,6.07
2022-11-29T01:51:03.191Z,5.89
2022-11-29T01:53:06.971Z,5.92
2022-11-29T01:55:10.229Z,5.59
2022-11-29T01:57:13.205Z,5.74
2022-11-29T01:59:19.549Z,5.65
2022-11-29T02:01:21.607Z,5.49
2022-11-29T02:03:24.002Z,5.52
2022-11-29T02:05:26.617Z,5.54
2022-11-29T02:07:28.469Z,5.59
2022-11-29T02:09:30.674Z,5.76
2022-11-29T02:11:56.507Z,5.77
2022-11-29T02:14:22.112Z,5.97
2022-11-29T02:16:35.614Z,5.95
2022-11-29T02:18:58.794Z,6.01
2022-11-29T02:21:07.933Z,6.10
2022-11-29T02:23:41.686Z,6.21
2022-11-29T02:25:58.821Z,6.16
2022-11-29T02:28:38.428Z,6.25
2022-11-29T02:30:59.838Z,6.17
2022-11-29T02:33:25.982Z,6.01
2022-11-29T02:35:40.321Z,5.94
2022-11-29T02:38:06.724Z,5.86
2022-11-29T02:41:18.636Z,5.84
2022-11-29T02:43:34.934Z,5.87
2022-11-29T02:45:55.020Z,5.89
2022-11-29T02:48:08.450Z,6.12
2022-11-29T02:50:23.224Z,5.78
2022-11-29T02:52:46.086Z,6.08
2022-11-29T02:55:19.449Z,6.09
2022-11-29T02:57:33.818Z,6.20
2022-11-29T03:00:05.179Z,6.22
2022-11-29T03:02:14.601Z,6.18
2022-11-29T03:04:43.538Z,5.87
2022-11-29T03:06:58.973Z,5.98
2022-11-29T03:09:26.155Z,6.10
2022-11-29T03:11:59.787Z,5.94
2022-11-29T03:14:13.449Z,6.04
2022-11-29T03:16:44.119Z,6.18
2022-11-29T03:19:04.331Z,6.07
2022-11-29T03:21:19.595Z,5.99
2022-11-29T03:23:36.266Z,6.14
2022-11-29T03:26:02.555Z,6.12
2022-11-29T03:28:18.717Z,6.15
2022-11-29T03:30:21.773Z,6.27
2022-11-29T03:32:34.974Z,6.33
2022-11-29T03:35:14.780Z,6.10
2022-11-29T03:37:25.627Z,5.96
2022-11-29T03:39:41.542Z,5.96
2022-11-29T03:41:59.442Z,5.84
2022-11-29T03:44:28.367Z,5.96
2022-11-29T03:46:58.546Z,5.87
2022-11-29T03:49:07.522Z,5.75
2022-11-29T03:51:28.433Z,5.98
2022-11-29T03:53:39.174Z,5.97
2022-11-29T03:56:02.146Z,5.69
2022-11-29T03:58:27.340Z,5.92
2022-11-29T04:00:39.425Z,6.02
2022-11-29T04:03:11.600Z,5.92
2022-11-29T04:05:21.965Z,6.00
2022-11-29T04:07:42.922Z,5.89
2022-11-29T04:10:14.827Z,5.77
2022-11-29T04:12:54.739Z,5.87
2022-11-29T04:15:10.515Z,5.85
2022-11-29T04:17:53.346Z,5.60
2022-11-29T04:20:36.299Z,5.60
2022-11-29T04:22:47.858Z,5.82
2022-11-29T04:25:22.759Z,5.78
2022-11-29T04:27:28.065Z,5.92
2022-11-29T04:30:05.440Z,5.73
2022-11-29T04:32:10.613Z,5.84
2022-11-29T04:34:34.686Z,5.95
2022-11-29T04:36:55.008Z,5.66
2022-11-29T04:39:03.142Z,5.65
2022-11-29T04:41:25.822Z,5.60
2022-11-29T04:43:48.672Z,5.64
2022-11-29T04:46:02.613Z,5.50
2022-11-29T04:48:21.591Z,5.49
2022-11-29T04:50:33.796Z,5.53
2022-11-29T04:52:47.579Z,5.25
2022-11-29T04:55:00.072Z,5.62
2022-11-29T04:57:08.886Z,5.69
2022-11-29T04:59:24.878Z,5.71
2022-11-29T05:01:41.050Z,5.35
2022-11-29T05:03:57.876Z,5.53
2022-11-29T05:06:37.505Z,5.67
2022-11-29T05:09:08.509Z,5.63
2022-11-29T05:11:45.029Z,5.58
2022-11-29T05:14:04.769Z,5.64
2022-11-29T05:16:16.101Z,5.72
2022-11-29T05:18:34.620Z,5.60
2022-11-29T05:21:00.358Z,5.29
2022-11-29T05:23:31.990Z,5.40
2022-11-29T05:25:57.156Z,5.14
2022-11-29T05:28:41.190Z,5.45
2022-11-29T05:31:17.313Z,5.36
2022-11-29T05:33:43.619Z,5.56
2022-11-29T05:36:15.185Z,5.66
2022-11-29T05:38:42.277Z,5.72
2022-11-29T05:40:58.138Z,5.86
2022-11-29T05:43:27.725Z,5.87
2022-11-29T05:45:35.011Z,5.78
2022-11-29T05:47:48.976Z,5.60
2022-11-29T05:50:32.062Z,5.64
2022-11-29T05:52:42.373Z,5.82
2022-11-29T05:54:59.003Z,5.84
2022-11-29T05:57:38.198Z,6.00
2022-11-29T05:59:42.173Z,6.15
2022-11-29T06:01:58.870Z,6.05
2022-11-29T06:04:21.129Z,6.04
2022-11-29T06:06:35.052Z,5.97
2022-11-29T06:08:58.597Z,5.93
2022-11-29T06:11:14.151Z,5.66
2022-11-29T06:13:38.684Z,5.54
2022-11-29T06:16:09.208Z,5.69
2022-11-29T06:18:48.581Z,5.93
2022-11-29T06:21:16.402Z,5.85
2022-11-29T06:23:25.490Z,5.85
2022-11-29T06:26:04.136Z,5.71
2022-11-29T06:28:23.054Z,5.94
2022-11-29T06:30:30.009Z,5.85
2022-11-29T06:32:57.812Z,5.76
2022-11-29T06:35:07.203Z,5.96
2022-11-29T06:37:40.205Z,5.86
2022-11-29T06:39:42.727Z,5.32
2022-11-29T06:41:44.758Z,5.04
2022-11-29T06:43:47.483Z,5.28
2022-11-29T06:45:52.770Z,5.54
2022-11-29T06:48:09.854Z,5.70
2022-11-29T06:50:33.702Z,5.57
2022-11-29T06:52:48.997Z,5.80
2022-11-29T06:55:12.363Z,5.41
2022-11-29T06:57:46.229Z,5.41
2022-11-29T06:59:57.369Z,5.49
2022-11-29T07:02:27.980Z,5.41
2022-11-29T07:04:46.712Z,5.76
2022-11-29T07:06:48.923Z,5.63
2022-11-29T07:08:56.931Z,5.68
2022-11-29T07:11:00.519Z,5.44
2022-11-29T07:13:02.785Z,5.80
2022-11-29T07:15:05.209Z,5.79
2022-11-29T07:17:54.915Z,5.95
2022-11-29T07:19:56.662Z,6.10
2022-11-29T07:22:36.254Z,6.11
2022-11-29T07:24:47.595Z,5.98
2022-11-29T07:26:59.813Z,5.57
2022-11-29T07:29:21.901Z,5.62
2022-11-29T07:31:31.560Z,5.90
2022-11-29T07:33:42.141Z,5.58
2022-11-29T07:35:56.954Z,5.53
2022-11-29T07:38:16.812Z,5.48
2022-11-29T07:40:40.770Z,5.62
2022-11-29T07:43:15.155Z,6.03
2022-11-29T07:45:32.043Z,6.36
2022-11-29T07:47:35.916Z,6.45
2022-11-29T07:49:38.156Z,6.15
2022-11-29T07:51:40.225Z,6.06
2022-11-29T07:53:44.269Z,5.93
2022-11-29T07:55:47.020Z,5.89
2022-11-29T07:57:49.382Z,6.16
2022-11-29T07:59:51.712Z,5.76
2022-11-29T08:01:54.667Z,5.88
2022-11-29T08:03:58.077Z,5.71
2022-11-29T08:05:59.860Z,5.94
2022-11-29T08:08:01.802Z,6.16
2022-11-29T08:10:07.176Z,6.19
2022-11-29T08:12:08.955Z,5.91
2022-11-29T08:14:11.015Z,5.88
2022-11-29T08:16:17.942Z,5.45
2022-11-29T08:18:20.638Z,5.95
2022-11-29T08:20:22.811Z,6.14
2022-11-29T08:22:24.855Z,6.06
2022-11-29T08:24:26.947Z,6.35
2022-11-29T08:26:31.798Z,6.20
2022-11-29T08:28:33.741Z,6.23
2022-11-29T08:30:38.367Z,6.30
2022-11-29T08:32:41.207Z,6.03
2022-11-29T08:34:49.436Z,5.91
2022-11-29T08:36:58.460Z,6.00
2022-11-29T08:39:09.254Z,6.38
2022-11-29T08:41:15.671Z,6.34
2022-11-29T08:43:17.420Z,6.56
2022-11-29T08:45:19.661Z,6.05
2022-11-29T08:47:37.078Z,6.39
2022-11-29T08:50:00.694Z,6.06
2022-11-29T08:52:24.093Z,6.44
2022-11-29T08:54:25.688Z,6.57
2022-11-29T08:58:50.487Z,6.60
2022-11-29T09:00:52.998Z,6.71
2022-11-29T09:02:54.858Z,6.57
2022-11-29T09:04:56.963Z,6.65
2022-11-29T09:06:59.111Z,6.42
2022-11-29T09:09:01.638Z,6.68
2022-11-29T09:11:17.211Z,5.95
2022-11-29T09:13:19.607Z,6.44
2022-11-29T09:15:21.883Z,6.34
2022-11-29T09:17:24.802Z,6.60
2022-11-29T09:19:27.347Z,6.72
2022-11-29T09:21:31.354Z,6.37
2022-11-29T09:23:33.406Z,5.89
2022-11-29T09:25:35.576Z,6.30
2022-11-29T09:27:37.616Z,6.07
2022-11-29T09:29:39.491Z,6.24
2022-11-29T09:31:45.205Z,6.17
2022-11-29T09:33:48.115Z,6.28
2022-11-29T09:35:50.309Z,6.56
2022-11-29T09:37:52.483Z,6.66
2022-11-29T09:39:57.144Z,6.87
2022-11-29T09:42:31.407Z,7.21
2022-11-29T09:44:45.694Z,7.00
2022-11-29T09:47:16.295Z,6.77
2022-11-29T09:49:35.687Z,6.94
2022-11-29T09:52:04.078Z,6.70
2022-11-29T09:54:36.178Z,6.50
2022-11-29T09:56:44.247Z,6.62
2022-11-29T09:58:58.963Z,6.50
2022-11-29T10:01:05.396Z,6.46
2022-11-29T10:03:18.659Z,6.24
2022-11-29T10:05:30.309Z,6.30
2022-11-29T10:07:38.838Z,6.66
2022-11-29T10:09:49.893Z,6.75
2022-11-29T10:12:13.874Z,6.98
2022-11-29T10:14:23.068Z,6.71
2022-11-29T10:16:29.991Z,6.67
2022-11-29T10:18:38.847Z,6.83
2022-11-29T10:20:48.822Z,6.53
2022-11-29T10:23:22.534Z,6.51
2022-11-29T10:25:48.865Z,6.91
2022-11-29T10:27:52.740Z,7.05
2022-11-29T10:29:54.822Z,6.69
2022-11-29T10:31:59.334Z,7.12
2022-11-29T10:34:08.118Z,7.34
2022-11-29T10:36:19.187Z,6.71
2022-11-29T10:38:36.284Z,6.67
2022-11-29T10:40:42.080Z,7.14
2022-11-29T10:42:49.920Z,7.00
2022-11-29T10:44:51.910Z,7.02
2022-11-29T10:46:55.883Z,6.70
2022-11-29T10:49:06.366Z,6.39
2022-11-29T10:51:16.953Z,6.90
2022-11-29T10:53:23.498Z,7.07
2022-11-29T10:55:27.725Z,6.84
2022-11-29T10:57:29.832Z,7.06
2022-11-29T10:59:33.427Z,7.03
2022-11-29T11:01:42.229Z,7.15
2022-11-29T11:03:55.371Z,6.93
2022-11-29T11:06:06.122Z,6.61
2022-11-29T11:08:17.489Z,6.85
2022-11-29T11:10:27.272Z,6.87
2022-11-29T11:12:32.947Z,6.85
2022-11-29T11:14:37.737Z,6.94
2022-11-29T11:16:39.587Z,7.22
2022-11-29T11:18:41.811Z,7.23
2022-11-29T11:20:51.423Z,7.19
2022-11-29T11:23:20.647Z,7.26
2022-11-29T11:25:34.781Z,7.02
2022-11-29T11:27:42.237Z,6.74
2022-11-29T11:29:45.190Z,6.36
2022-11-29T11:31:58.168Z,6.66
2022-11-29T11:34:26.479Z,6.99
2022-11-29T11:36:28.750Z,6.87
2022-11-29T11:38:31.099Z,6.92
2022-11-29T11:40:34.614Z,7.25
2022-11-29T11:42:40.482Z,7.26
2022-11-29T11:44:49.963Z,6.95
2022-11-29T11:46:52.666Z,7.05
2022-11-29T11:48:55.026Z,7.18
2022-11-29T11:50:59.366Z,6.98
2022-11-29T11:53:06.536Z,7.03
2022-11-29T11:55:45.759Z,6.95
2022-11-29T11:58:09.034Z,6.95
2022-11-29T12:01:04.045Z,6.54
2022-11-29T12:03:28.722Z,6.25
2022-11-29T12:05:30.799Z,6.42
2022-11-29T12:08:06.829Z,6.66
2022-11-29T12:10:10.520Z,6.34
2022-11-29T12:12:23.173Z,6.66
2022-11-29T12:14:47.600Z,6.42
2022-11-29T12:16:58.916Z,6.55
2022-11-29T12:19:17.913Z,6.71
2022-11-29T12:21:27.467Z,6.62
2022-11-29T12:23:52.781Z,6.96
2022-11-29T12:26:00.333Z,6.61
2022-11-29T12:28:02.392Z,6.63
2022-11-29T12:30:12.187Z,6.77
2022-11-29T12:32:26.709Z,6.87
2022-11-29T12:34:56.377Z,6.67
2022-11-29T12:37:35.764Z,6.89
2022-11-29T12:39:50.799Z,6.69
2022-11-29T12:42:01.247Z,6.85
2022-11-29T12:44:26.839Z,6.62
2022-11-29T12:46:30.301Z,6.55
2022-11-29T12:49:00.377Z,6.92
2022-11-29T12:51:07.118Z,6.87
2022-11-29T12:53:27.118Z,6.52
2022-11-29T12:55:47.859Z,6.72
2022-11-29T12:57:59.123Z,6.93
2022-11-29T13:00:10.115Z,6.95
2022-11-29T13:02:39.562Z,6.75
2022-11-29T13:05:12.303Z,6.87
2022-11-29T13:07:28.772Z,6.90
2022-11-29T13:10:02.863Z,6.66
2022-11-29T13:12:13.110Z,6.85
2022-11-29T13:14:43.100Z,6.45
2022-11-29T13:16:58.879Z,6.52
2022-11-29T13:19:14.940Z,6.61
2022-11-29T13:21:28.267Z,6.61
2022-11-29T13:24:10.672Z,6.51
2022-11-29T13:26:13.929Z,6.56
2022-11-29T13:28:29.582Z,6.63
2022-11-29T13:30:35.019Z,6.50
2022-11-29T13:32:51.660Z,6.75
2022-11-29T13:34:58.751Z,6.74
2022-11-29T13:37:20.096Z,6.39
2022-11-29T13:39:34.654Z,6.36
2022-11-29T13:42:15.722Z,6.59
2022-11-29T13:44:33.040Z,6.62
2022-11-29T13:46:54.776Z,6.42
2022-11-29T13:48:57.187Z,6.46
2022-11-29T13:51:27.056Z,6.62
2022-11-29T13:53:48.221Z,6.63
2022-11-29T13:56:02.514Z,6.71
2022-11-29T13:58:16.642Z,6.85
2022-11-29T14:00:39.669Z,6.80
2022-11-29T14:02:42.070Z,6.59
2022-11-29T14:04:46.334Z,6.46
2022-11-29T14:06:50.245Z,6.62
2022-11-29T14:09:21.854Z,6.66
2022-11-29T14:11:13.862Z,6.72
2022-11-29T14:13:16.459Z,6.74
2022-11-29T14:15:28.355Z,6.68
2022-11-29T14:17:35.393Z,6.80
2022-11-29T14:19:37.315Z,6.13
2022-11-29T14:22:06.805Z,6.02
2022-11-29T14:24:36.825Z,6.12
2022-11-29T14:26:38.713Z,6.08
2022-11-29T14:28:41.532Z,6.20
2022-11-29T14:30:49.209Z,6.33
2022-11-29T14:33:03.986Z,6.04
2022-11-29T14:35:12.019Z,5.99
2022-11-29T14:37:31.037Z,6.22
2022-11-29T14:39:48.309Z,6.27
2022-11-29T14:42:04.779Z,6.06
2022-11-29T14:44:18.798Z,6.34
2022-11-29T14:46:29.504Z,6.13
2022-11-29T14:48:33.515Z,6.30
2022-11-29T14:50:38.204Z,6.10
2022-11-29T14:52:50.527Z,6.08
2022-11-29T14:54:59.971Z,6.14
2022-11-29T14:57:39.917Z,6.39
2022-11-29T14:59:51.686Z,6.39
2022-11-29T15:01:54.982Z,6.23
2022-11-29T15:03:57.119Z,6.03
2022-11-29T15:06:14.148Z,6.12
2022-11-29T15:08:50.196Z,6.17
2022-11-29T15:10:57.350Z,5.89
2022-11-29T15:13:00.936Z,5.64
2022-11-29T15:15:21.843Z,6.15
2022-11-29T15:17:49.296Z,5.97
2022-11-29T15:20:14.199Z,5.68
2022-11-29T15:22:23.080Z,6.00
2022-11-29T15:24:28.763Z,5.55
2022-11-29T15:26:32.243Z,5.81
2022-11-29T15:28:34.087Z,5.96
2022-11-29T15:30:39.579Z,6.15
2022-11-29T15:32:44.535Z,5.91
2022-11-29T15:34:51.826Z,6.05
2022-11-29T15:36:53.955Z,6.04
2022-11-29T15:38:59.245Z,6.27
2022-11-29T15:41:03.443Z,6.19
2022-11-29T15:43:34.686Z,6.51
2022-11-29T15:45:39.547Z,6.51
2022-11-29T15:47:41.766Z,6.15
2022-11-29T15:49:44.190Z,6.28
2022-11-29T15:51:51.459Z,5.97
2022-11-29T15:54:13.069Z,6.39
2022-11-29T15:56:22.375Z,6.40
2022-11-29T15:58:27.635Z,6.14
2022-11-29T16:00:31.608Z,6.31
2022-11-29T16:02:37.215Z,5.95
2022-11-29T16:04:46.488Z,6.07
2022-11-29T16:07:04.181Z,6.28
2022-11-29T16:09:11.931Z,6.23
2022-11-29T16:11:17.594Z,6.31
2022-11-29T16:13:31.815Z,6.00
2022-11-29T16:15:37.063Z,6.31
2022-11-29T16:17:40.498Z,6.37
2022-11-29T16:19:43.881Z,6.22
2022-11-29T16:21:45.710Z,6.24
2022-11-29T16:23:49.099Z,6.15
2022-11-29T16:25:59.190Z,6.16
2022-11-29T16:28:01.475Z,6.50
2022-11-29T16:30:05.296Z,6.43
2022-11-29T16:32:26.097Z,6.36
2022-11-29T16:34:32.104Z,6.22
2022-11-29T16:36:35.423Z,6.43
2022-11-29T16:38:38.327Z,6.22
2022-11-29T16:40:40.524Z,6.10
2022-11-29T16:42:48.911Z,6.31
2022-11-29T16:45:28.641Z,6.39
2022-11-29T16:48:00.285Z,6.45
2022-11-29T16:50:02.081Z,6.38
2022-11-29T16:52:29.304Z,6.11
2022-11-29T16:54:35.944Z,6.26
2022-11-29T16:56:39.000Z,6.33
2022-11-29T16:59:25.560Z,6.44
2022-11-29T17:01:28.795Z,6.44
2022-11-29T17:03:32.318Z,6.47
2022-11-29T17:05:35.718Z,6.47
2022-11-29T17:07:40.426Z,6.38
2022-11-29T17:09:57.055Z,6.07
2022-11-29T17:12:01.908Z,6.00
2022-11-29T17:14:04.089Z,6.00
2022-11-29T17:16:11.800Z,6.04
2022-11-29T17:18:15.024Z,5.97
2022-11-29T17:20:17.392Z,6.27
2022-11-29T17:22:19.673Z,6.47
2022-11-29T17:24:23.110Z,6.38
2022-11-29T17:26:26.871Z,6.42
2022-11-29T17:28:28.899Z,6.22
2022-11-29T17:30:32.592Z,6.06
2022-11-29T17:32:35.706Z,6.05
2022-11-29T17:34:37.510Z,5.82
2022-11-29T17:36:40.541Z,5.85
2022-11-29T17:38:44.241Z,6.04
2022-11-29T17:40:46.386Z,5.96
2022-11-29T17:42:50.673Z,5.73
2022-11-29T17:44:52.816Z,5.93
2022-11-29T17:46:58.171Z,5.87
2022-11-29T17:49:02.722Z,5.81
2022-11-29T17:51:13.542Z,5.87
2022-11-29T17:53:34.711Z,6.07
2022-11-29T17:55:42.494Z,6.09
2022-11-29T17:57:44.341Z,6.12
2022-11-29T17:59:46.763Z,6.10
2022-11-29T18:01:52.320Z,6.42
2022-11-29T18:03:58.856Z,6.65
2022-11-29T18:06:01.295Z,6.22
2022-11-29T18:08:04.362Z,6.29
2022-11-29T18:10:08.144Z,6.35
2022-11-29T18:12:10.693Z,5.98
2022-11-29T18:14:14.053Z,5.99
2022-11-29T18:16:18.976Z,6.13
2022-11-29T18:18:22.082Z,6.06
2022-11-29T18:20:23.969Z,5.79
2022-11-29T18:22:28.020Z,5.93
2022-11-29T18:24:30.203Z,5.96
2022-11-29T18:26:33.931Z,5.78
2022-11-29T18:28:38.085Z,6.00
2022-11-29T18:30:40.044Z,6.01
2022-11-29T18:32:42.732Z,6.05
2022-11-29T18:34:46.338Z,6.14
2022-11-29T18:36:49.536Z,5.63
2022-11-29T18:38:59.575Z,5.97
2022-11-29T18:41:13.873Z,6.20
2022-11-29T18:43:16.860Z,6.12
2022-11-29T18:45:18.692Z,5.84
2022-11-29T18:47:20.954Z,5.91
2022-11-29T18:49:23.449Z,5.87
2022-11-29T18:51:25.830Z,6.02
2022-11-29T18:53:27.657Z,6.03
2022-11-29T18:55:29.465Z,6.07
2022-11-29T18:57:31.609Z,5.86
2022-11-29T18:59:33.461Z,5.72
2022-11-29T19:01:41.016Z,5.91
2022-11-29T19:03:50.476Z,6.10
2022-11-29T19:05:54.388Z,6.14
2022-11-29T19:07:59.570Z,6.07
2022-11-29T19:10:03.884Z,6.23
2022-11-29T19:12:06.640Z,6.15
2022-11-29T19:14:14.114Z,6.17
2022-11-29T19:16:18.615Z,6.29
2022-11-29T19:18:21.691Z,6.43
2022-11-29T19:20:23.489Z,6.56
2022-11-29T19:22:26.071Z,6.54
2022-11-29T19:24:27.915Z,6.52
2022-11-29T19:26:31.483Z,6.58
2022-11-29T19:28:36.124Z,6.46
2022-11-29T19:30:38.115Z,6.44
2022-11-29T19:32:45.152Z,6.59
2022-11-29T19:34:50.225Z,6.35
2022-11-29T19:36:52.389Z,6.56
2022-11-29T19:38:57.780Z,6.25
2022-11-29T19:41:13.437Z,6.33
2022-11-29T19:43:15.996Z,6.42
2022-11-29T19:45:18.416Z,6.37
2022-11-29T19:47:20.810Z,6.31
2022-11-29T19:49:22.604Z,6.25
2022-11-29T19:51:27.389Z,6.29
2022-11-29T19:53:29.517Z,6.20
2022-11-29T19:55:31.410Z,6.14
2022-11-29T19:57:34.006Z,6.21
2022-11-29T19:59:36.019Z,6.23
2022-11-29T20:01:41.445Z,6.05
2022-11-29T20:03:45.333Z,5.96
2022-11-29T20:05:56.045Z,6.15
2022-11-29T20:07:57.959Z,6.31
2022-11-29T20:10:00.629Z,6.26
2022-11-29T20:12:04.320Z,6.27
2022-11-29T20:14:07.478Z,6.28
2022-11-29T20:16:12.583Z,6.22
2022-11-29T20:18:14.456Z,6.17
2022-11-29T20:20:19.792Z,6.32
2022-11-29T20:22:22.079Z,6.38
2022-11-29T20:24:24.011Z,6.27
2022-11-29T20:26:27.360Z,6.27
2022-11-29T20:28:30.447Z,6.48
2022-11-29T20:30:33.623Z,5.95
2022-11-29T20:32:36.062Z,6.20
2022-11-29T20:34:39.699Z,5.86
2022-11-29T20:37:01.239Z,6.27
2022-11-29T20:39:41.020Z,6.35
2022-11-29T20:41:51.234Z,6.12
2022-11-29T20:43:58.091Z,6.05
2022-11-29T20:46:00.151Z,5.92
2022-11-29T20:48:13.250Z,6.20
2022-11-29T20:50:27.189Z,6.08
2022-11-29T20:53:07.838Z,6.25
2022-11-29T20:55:10.089Z,5.96
2022-11-29T20:57:11.889Z,5.89
2022-11-29T20:59:14.155Z,5.77
2022-11-29T21:01:16.125Z,5.85
2022-11-29T21:03:19.710Z,5.92
2022-11-29T21:05:22.039Z,5.90
2022-11-29T21:07:23.906Z,5.99
2022-11-29T21:09:25.741Z,5.97
2022-11-29T21:11:28.499Z,5.81
2022-11-29T21:13:31.967Z,5.94
2022-11-29T21:15:34.296Z,5.86
2022-11-29T21:17:36.837Z,6.09
2022-11-29T21:19:40.732Z,6.02
2022-11-29T21:21:57.044Z,6.12
2022-11-29T21:24:10.163Z,6.22
2022-11-29T21:26:27.782Z,6.32
2022-11-29T21:28:42.580Z,6.39
2022-11-29T21:30:44.751Z,6.05
2022-11-29T21:32:47.477Z,5.77
2022-11-29T21:34:49.720Z,6.03
2022-11-29T21:36:57.113Z,5.94
2022-11-29T21:39:03.656Z,5.92
2022-11-29T21:41:06.948Z,6.03
2022-11-29T21:43:08.853Z,6.22
2022-11-29T21:45:15.313Z,5.90
2022-11-29T21:47:17.805Z,6.14
2022-11-29T21:49:19.621Z,5.89
2022-11-29T21:51:21.866Z,5.97
2022-11-29T21:53:23.803Z,6.19
2022-11-29T21:55:31.758Z,6.23
2022-11-29T21:57:34.622Z,6.00
2022-11-29T21:59:36.447Z,6.07
2022-11-29T22:01:38.367Z,6.18
2022-11-29T22:03:43.690Z,6.29
2022-11-29T22:05:45.570Z,6.06
2022-11-29T22:07:47.381Z,6.16
2022-11-29T22:09:49.585Z,6.14
2022-11-29T22:11:51.454Z,6.01
2022-11-29T22:14:16.524Z,6.10
2022-11-29T22:16:18.876Z,6.09
2022-11-29T22:18:20.811Z,6.17
2022-11-29T22:20:22.839Z,6.20
2022-11-29T22:22:27.964Z,6.03
2022-11-29T22:24:36.844Z,5.94
2022-11-29T22:26:39.189Z,6.05
2022-11-29T22:28:41.390Z,5.59
2022-11-29T22:30:43.196Z,5.85
2022-11-29T22:32:45.371Z,6.09
2022-11-29T22:34:47.476Z,5.94
2022-11-29T22:36:49.444Z,5.58
2022-11-29T22:38:51.639Z,5.72
2022-11-29T22:40:53.635Z,5.86
2022-11-29T22:42:55.450Z,5.83
2022-11-29T22:44:57.647Z,5.89
2022-11-29T22:46:59.530Z,6.03
2022-11-29T22:49:02.055Z,5.99
2022-11-29T22:51:21.494Z,6.08
2022-11-29T22:53:23.260Z,5.70
2022-11-29T22:55:25.166Z,5.79
2022-11-29T22:57:27.258Z,5.87
2022-11-29T22:59:29.665Z,5.47
2022-11-29T23:01:34.865Z,5.62
2022-11-29T23:03:38.737Z,5.89
2022-11-29T23:05:40.565Z,6.04
2022-11-29T23:07:43.281Z,5.98
2022-11-29T23:09:45.094Z,5.87
2022-11-29T23:11:52.010Z,5.94
2022-11-29T23:13:54.400Z,5.97
2022-11-29T23:15:56.166Z,6.06
2022-11-29T23:17:58.707Z,6.04
2022-11-29T23:20:00.525Z,6.09
2022-11-29T23:22:02.687Z,5.95
2022-11-29T23:24:05.233Z,5.93
2022-11-29T23:26:08.169Z,6.10
2022-11-29T23:28:10.290Z,5.78
2022-11-29T23:30:12.714Z,5.97
2022-11-29T23:32:14.680Z,5.97
2022-11-29T23:34:17.021Z,6.12
2022-11-29T23:36:19.095Z,6.00
2022-11-29T23:38:21.050Z,6.09
2022-11-29T23:40:23.166Z,5.99
2022-11-29T23:42:25.680Z,5.90
2022-11-29T23:44:27.478Z,5.75
2022-11-29T23:46:29.598Z,5.78
2022-11-29T23:48:31.407Z,5.88
2022-11-29T23:50:33.411Z,5.47
2022-11-29T23:52:35.533Z,5.86
2022-11-29T23:54:38.396Z,5.75
2022-11-29T23:56:40.565Z,5.74
2022-11-29T23:58:43.330Z,5.95
